createdAt,value
2019-02-05T00:00:37.370Z,4.80
2019-02-05T00:03:08.242Z,3.40
2019-02-05T00:05:37.382Z,8.37
2019-02-05T00:08:06.080Z,4.30
2019-02-05T00:10:34.927Z,3.33
2019-02-05T00:13:03.825Z,3.20
2019-02-05T00:15:33.107Z,4.73
2019-02-05T00:18:01.946Z,3.17
2019-02-05T00:20:30.732Z,3.37
2019-02-05T00:22:59.310Z,5.93
2019-02-05T00:25:28.036Z,3.73
2019-02-05T00:27:56.742Z,3.90
2019-02-05T00:30:25.926Z,4.97
2019-02-05T00:32:54.665Z,4.73
2019-02-05T00:35:23.739Z,4.20
2019-02-05T00:37:52.860Z,3.23
2019-02-05T00:40:23.112Z,3.37
2019-02-05T00:42:51.739Z,5.20
2019-02-05T00:45:21.150Z,4.10
2019-02-05T00:47:49.949Z,5.37
2019-02-05T00:50:19.610Z,4.37
2019-02-05T00:52:48.399Z,5.47
2019-02-05T00:55:19.218Z,5.10
2019-02-05T00:57:48.350Z,7.20
2019-02-05T01:00:25.936Z,4.10
2019-02-05T01:02:55.237Z,6.17
2019-02-05T01:05:24.254Z,4.33
2019-02-05T01:07:53.396Z,4.90
2019-02-05T01:10:23.243Z,7.97
2019-02-05T01:12:52.011Z,3.90
2019-02-05T01:15:22.777Z,6.13
2019-02-05T01:17:51.906Z,4.60
2019-02-05T01:20:21.736Z,5.77
2019-02-05T01:22:51.001Z,4.13
2019-02-05T01:25:20.556Z,5.30
2019-02-05T01:27:49.639Z,9.10
2019-02-05T01:30:20.773Z,2.93
2019-02-05T01:32:49.382Z,3.13
2019-02-05T01:35:18.249Z,6.00
2019-02-05T01:37:46.925Z,6.87
2019-02-05T01:40:18.746Z,6.40
2019-02-05T01:42:47.430Z,4.70
2019-02-05T01:45:39.710Z,6.00
2019-02-05T01:48:08.543Z,6.40
2019-02-05T01:50:37.228Z,3.27
2019-02-05T01:53:06.583Z,5.47
2019-02-05T01:55:35.725Z,10.10
2019-02-05T01:58:04.902Z,6.33
2019-02-05T02:00:35.299Z,6.73
2019-02-05T02:03:04.616Z,8.10
2019-02-05T02:05:33.719Z,12.40
2019-02-05T02:08:02.584Z,4.77
2019-02-05T02:10:31.906Z,10.03
2019-02-05T02:13:00.770Z,10.27
2019-02-05T02:15:29.805Z,5.07
2019-02-05T02:17:58.594Z,8.00
2019-02-05T02:20:27.479Z,7.90
2019-02-05T02:22:56.836Z,6.10
2019-02-05T02:25:25.875Z,7.50
2019-02-05T02:27:55.086Z,11.70
2019-02-05T02:30:26.776Z,7.60
2019-02-05T02:32:55.566Z,8.40
2019-02-05T02:35:24.756Z,6.23
2019-02-05T02:37:53.697Z,7.93
2019-02-05T02:40:23.079Z,13.37
2019-02-05T02:42:52.073Z,7.33
2019-02-05T02:45:20.867Z,9.77
2019-02-05T02:47:50.074Z,9.03
2019-02-05T02:50:20.902Z,7.70
2019-02-05T02:52:50.104Z,6.87
2019-02-05T02:55:19.403Z,7.47
2019-02-05T02:57:48.677Z,9.30
2019-02-05T03:00:23.688Z,5.57
2019-02-05T03:02:52.827Z,11.80
2019-02-05T03:05:23.278Z,14.53
2019-02-05T03:07:52.443Z,10.07
2019-02-05T03:10:23.651Z,10.07
2019-02-05T03:12:53.207Z,11.23
2019-02-05T03:15:23.894Z,7.00
2019-02-05T03:17:52.569Z,8.03
2019-02-05T03:20:21.768Z,8.90
2019-02-05T03:22:51.422Z,12.60
2019-02-05T03:25:23.173Z,14.47
2019-02-05T03:27:53.846Z,15.73
2019-02-05T03:30:24.661Z,8.60
2019-02-05T03:32:55.457Z,16.07
2019-02-05T03:35:24.668Z,12.80
2019-02-05T03:37:53.512Z,8.47
2019-02-05T03:40:31.469Z,9.00
2019-02-05T03:43:00.306Z,9.97
2019-02-05T03:45:31.752Z,9.13
2019-02-05T03:48:02.722Z,9.97
2019-02-05T03:50:34.078Z,13.47
2019-02-05T03:53:08.834Z,10.07
2019-02-05T03:55:47.010Z,7.93
2019-02-05T03:58:30.784Z,11.40
2019-02-05T04:01:05.429Z,10.67
2019-02-05T04:03:53.776Z,10.00
2019-02-05T04:06:50.923Z,8.97
2019-02-05T04:09:31.318Z,6.43
2019-02-05T04:12:12.176Z,10.03
2019-02-05T04:14:46.846Z,12.10
2019-02-05T04:17:21.752Z,12.23
2019-02-05T04:20:11.488Z,10.33
2019-02-05T04:22:58.346Z,10.20
2019-02-05T04:25:51.147Z,14.97
2019-02-05T04:28:31.831Z,20.50
2019-02-05T04:31:09.916Z,12.70
2019-02-05T04:34:04.405Z,13.93
2019-02-05T04:36:57.269Z,11.27
2019-02-05T04:39:36.796Z,13.30
2019-02-05T04:42:14.163Z,20.93
2019-02-05T04:45:01.108Z,15.03
2019-02-05T04:47:51.122Z,20.43
2019-02-05T04:50:28.883Z,14.10
2019-02-05T04:53:02.496Z,9.87
2019-02-05T04:55:45.539Z,9.83
2019-02-05T04:58:38.931Z,20.00
2019-02-05T05:01:28.543Z,15.30
2019-02-05T05:04:14.845Z,13.73
2019-02-05T05:07:07.827Z,9.20
2019-02-05T05:09:42.353Z,11.10
2019-02-05T05:12:11.399Z,13.80
2019-02-05T05:14:41.139Z,10.37
2019-02-05T05:17:09.751Z,21.40
2019-02-05T05:19:38.485Z,8.63
2019-02-05T05:22:07.575Z,14.40
2019-02-05T05:24:37.006Z,17.53
2019-02-05T05:27:06.187Z,16.77
2019-02-05T05:29:35.308Z,13.33
2019-02-05T05:32:05.308Z,16.37
2019-02-05T05:34:35.703Z,13.77
2019-02-05T05:37:03.249Z,25.53
2019-02-05T05:39:31.950Z,12.17
2019-02-05T05:42:00.776Z,11.20
2019-02-05T05:44:29.362Z,17.00
2019-02-05T05:47:01.000Z,22.83
2019-02-05T05:49:29.693Z,15.77
2019-02-05T05:52:00.162Z,11.53
2019-02-05T05:54:28.779Z,13.67
2019-02-05T05:56:57.485Z,18.03
2019-02-05T05:59:26.184Z,10.47
2019-02-05T06:02:00.959Z,14.10
2019-02-05T06:04:30.394Z,13.63
2019-02-05T06:06:59.006Z,12.80
2019-02-05T06:09:27.701Z,9.90
2019-02-05T06:11:56.362Z,12.13
2019-02-05T06:14:25.152Z,12.10
2019-02-05T06:16:53.992Z,11.67
2019-02-05T06:19:23.239Z,12.00
2019-02-05T06:21:51.971Z,11.53
2019-02-05T06:24:20.654Z,13.10
2019-02-05T06:26:49.451Z,12.00
2019-02-05T06:29:18.619Z,13.27
2019-02-05T06:31:47.527Z,14.47
2019-02-05T06:34:16.329Z,10.10
2019-02-05T06:36:45.644Z,12.57
2019-02-05T06:39:14.321Z,9.40
2019-02-05T06:41:43.230Z,13.77
2019-02-05T06:44:11.838Z,11.77
2019-02-05T06:46:40.517Z,12.83
2019-02-05T06:49:09.283Z,9.13
2019-02-05T06:51:38.170Z,13.97
2019-02-05T06:54:06.908Z,15.43
2019-02-05T06:56:35.652Z,12.67
2019-02-05T06:59:04.444Z,12.23
2019-02-05T07:01:33.319Z,8.93
2019-02-05T07:04:02.061Z,13.93
2019-02-05T07:06:30.757Z,15.50
2019-02-05T07:08:59.511Z,17.60
2019-02-05T07:11:28.152Z,14.10
2019-02-05T07:13:58.225Z,14.13
2019-02-05T07:16:27.471Z,16.47
2019-02-05T07:18:56.061Z,13.00
2019-02-05T07:21:24.739Z,11.10
2019-02-05T07:23:53.523Z,9.77
2019-02-05T07:26:22.617Z,9.60
2019-02-05T07:28:58.407Z,17.77
2019-02-05T07:31:21.931Z,12.17
2019-02-05T07:33:50.582Z,13.10
2019-02-05T07:36:19.691Z,12.83
2019-02-05T07:38:48.393Z,11.03
2019-02-05T07:41:17.106Z,12.63
2019-02-05T07:43:46.537Z,12.43
2019-02-05T07:46:15.372Z,11.50
2019-02-05T07:48:44.082Z,10.17
2019-02-05T07:51:13.249Z,14.70
2019-02-05T07:53:42.006Z,12.90
2019-02-05T07:56:13.003Z,12.83
2019-02-05T07:58:41.817Z,17.17
2019-02-05T08:01:11.552Z,10.50
2019-02-05T08:03:40.458Z,15.87
2019-02-05T08:06:09.304Z,17.50
2019-02-05T08:08:38.042Z,12.40
2019-02-05T08:11:07.083Z,14.30
2019-02-05T08:13:36.223Z,13.93
2019-02-05T08:16:05.349Z,14.70
2019-02-05T08:18:34.158Z,13.23
2019-02-05T08:21:03.359Z,14.20
2019-02-05T08:23:32.549Z,11.17
2019-02-05T08:26:01.237Z,14.00
2019-02-05T08:28:40.375Z,15.87
2019-02-05T08:31:00.654Z,17.47
2019-02-05T08:33:29.439Z,14.47
2019-02-05T08:35:58.238Z,15.07
2019-02-05T08:38:27.362Z,15.37
2019-02-05T08:40:56.047Z,17.87
2019-02-05T08:43:24.641Z,23.80
2019-02-05T08:45:56.607Z,18.50
2019-02-05T08:48:23.900Z,20.63
2019-02-05T08:50:52.839Z,15.37
2019-02-05T08:53:21.496Z,19.30
2019-02-05T08:55:50.816Z,17.27
2019-02-05T08:58:30.297Z,17.40
2019-02-05T09:00:50.129Z,16.70
2019-02-05T09:03:18.973Z,17.57
2019-02-05T09:05:47.759Z,13.50
2019-02-05T09:08:16.593Z,15.33
2019-02-05T09:10:45.982Z,14.00
2019-02-05T09:13:15.042Z,17.53
2019-02-05T09:15:43.898Z,19.10
2019-02-05T09:18:12.729Z,14.77
2019-02-05T09:20:41.655Z,18.17
2019-02-05T09:23:10.705Z,12.90
2019-02-05T09:25:39.460Z,18.30
2019-02-05T09:28:08.285Z,15.07
2019-02-05T09:30:37.334Z,17.13
2019-02-05T09:33:14.559Z,16.90
2019-02-05T09:35:43.443Z,16.23
2019-02-05T09:38:12.373Z,14.97
2019-02-05T09:40:41.120Z,12.47
2019-02-05T09:43:11.212Z,12.83
2019-02-05T09:45:40.021Z,13.83
2019-02-05T09:48:08.751Z,14.27
2019-02-05T09:50:44.562Z,18.53
2019-02-05T09:53:07.986Z,16.60
2019-02-05T09:55:36.951Z,14.93
2019-02-05T09:58:05.663Z,13.67
2019-02-05T10:00:41.083Z,13.93
2019-02-05T10:03:09.927Z,19.03
2019-02-05T10:05:38.695Z,17.83
2019-02-05T10:08:07.645Z,14.77
2019-02-05T10:10:36.388Z,16.60
2019-02-05T10:13:05.837Z,14.07
2019-02-05T10:15:36.808Z,16.47
2019-02-05T10:18:07.756Z,21.33
2019-02-05T10:20:36.595Z,14.63
2019-02-05T10:23:06.467Z,15.33
2019-02-05T10:25:35.537Z,16.60
2019-02-05T10:28:04.490Z,18.67
2019-02-05T10:30:41.532Z,16.07
2019-02-05T10:33:10.581Z,15.27
2019-02-05T10:35:39.358Z,15.17
2019-02-05T10:38:08.245Z,19.10
2019-02-05T10:40:37.187Z,16.23
2019-02-05T10:43:06.462Z,14.30
2019-02-05T10:45:36.364Z,18.43
2019-02-05T10:48:07.061Z,16.90
2019-02-05T10:50:35.808Z,15.20
2019-02-05T10:53:04.748Z,19.83
2019-02-05T10:55:33.523Z,18.43
2019-02-05T10:58:02.833Z,18.00
2019-02-05T11:00:32.757Z,20.33
2019-02-05T11:03:06.740Z,20.90
2019-02-05T11:05:35.748Z,15.40
2019-02-05T11:08:05.022Z,16.03
2019-02-05T11:10:33.787Z,15.63
2019-02-05T11:13:02.436Z,16.10
2019-02-05T11:15:32.898Z,16.70
2019-02-05T11:18:03.835Z,18.53
2019-02-05T11:20:32.594Z,21.20
2019-02-05T11:23:01.862Z,16.60
2019-02-05T11:25:30.812Z,21.07
2019-02-05T11:27:59.597Z,22.90
2019-02-05T11:30:37.091Z,19.17
2019-02-05T11:33:06.088Z,17.00
2019-02-05T11:35:35.226Z,15.80
2019-02-05T11:38:05.120Z,21.60
2019-02-05T11:40:38.733Z,16.73
2019-02-05T11:43:07.617Z,16.27
2019-02-05T11:45:36.403Z,19.60
2019-02-05T11:48:11.425Z,17.43
2019-02-05T11:50:40.040Z,19.03
2019-02-05T11:53:09.192Z,18.20
2019-02-05T11:55:38.010Z,21.33
2019-02-05T11:58:06.744Z,17.33
2019-02-05T12:00:49.198Z,15.33
2019-02-05T12:03:18.350Z,17.77
2019-02-05T12:05:47.132Z,17.23
2019-02-05T12:08:18.504Z,16.00
2019-02-05T12:10:47.094Z,17.67
2019-02-05T12:13:15.891Z,18.80
2019-02-05T12:15:44.614Z,16.73
2019-02-05T12:18:13.834Z,15.77
2019-02-05T12:20:43.690Z,18.20
2019-02-05T12:23:12.447Z,19.80
2019-02-05T12:25:41.260Z,15.93
2019-02-05T12:28:10.029Z,18.27
2019-02-05T12:30:45.386Z,14.57
2019-02-05T12:33:12.899Z,14.40
2019-02-05T12:35:41.729Z,16.07
2019-02-05T12:38:10.787Z,18.07
2019-02-05T12:40:39.401Z,16.87
2019-02-05T12:43:08.269Z,15.67
2019-02-05T12:45:38.743Z,16.50
2019-02-05T12:48:07.977Z,14.67
2019-02-05T12:50:39.044Z,17.20
2019-02-05T12:53:07.991Z,13.53
2019-02-05T12:55:37.040Z,14.70
2019-02-05T12:58:06.442Z,15.47
2019-02-05T13:00:56.007Z,12.30
2019-02-05T13:03:14.509Z,19.80
2019-02-05T13:05:44.169Z,16.23
2019-02-05T13:08:13.492Z,14.37
2019-02-05T13:10:47.614Z,15.20
2019-02-05T13:13:18.315Z,12.43
2019-02-05T13:15:47.100Z,12.70
2019-02-05T13:18:15.922Z,13.63
2019-02-05T13:20:44.873Z,13.93
2019-02-05T13:23:14.754Z,12.10
2019-02-05T13:25:43.533Z,17.83
2019-02-05T13:28:12.583Z,15.10
2019-02-05T13:30:41.416Z,17.00
2019-02-05T13:33:11.254Z,12.57
2019-02-05T13:35:40.443Z,16.73
2019-02-05T13:38:09.193Z,15.03
2019-02-05T13:40:38.136Z,12.20
2019-02-05T13:43:07.596Z,12.97
2019-02-05T13:45:38.581Z,15.97
2019-02-05T13:48:07.843Z,16.23
2019-02-05T13:50:37.337Z,13.50
2019-02-05T13:53:06.688Z,15.33
2019-02-05T13:55:38.332Z,13.57
2019-02-05T13:58:07.343Z,15.50
2019-02-05T14:00:44.883Z,14.63
2019-02-05T14:03:13.807Z,12.83
2019-02-05T14:05:42.623Z,37.87
2019-02-05T14:08:11.490Z,16.77
2019-02-05T14:10:42.064Z,14.53
2019-02-05T14:13:11.116Z,14.37
2019-02-05T14:15:42.519Z,16.83
2019-02-05T14:18:11.972Z,14.50
2019-02-05T14:20:41.252Z,13.60
2019-02-05T14:23:10.130Z,12.50
2019-02-05T14:25:38.973Z,15.97
2019-02-05T14:28:08.490Z,12.27
2019-02-05T14:30:40.495Z,14.80
2019-02-05T14:33:09.249Z,11.97
2019-02-05T14:35:38.234Z,14.73
2019-02-05T14:38:08.013Z,14.27
2019-02-05T14:40:36.878Z,14.70
2019-02-05T14:43:06.667Z,16.83
2019-02-05T14:45:35.956Z,15.13
2019-02-05T14:48:05.982Z,14.30
2019-02-05T14:50:44.446Z,19.13
2019-02-05T14:53:13.870Z,14.00
2019-02-05T14:55:42.496Z,14.40
2019-02-05T14:58:12.260Z,19.80
2019-02-05T15:00:41.209Z,11.30
2019-02-05T15:03:13.967Z,12.73
2019-02-05T15:05:43.407Z,15.60
2019-02-05T15:08:13.381Z,12.60
2019-02-05T15:10:42.175Z,11.60
2019-02-05T15:13:11.087Z,13.50
2019-02-05T15:15:39.912Z,14.43
2019-02-05T15:18:10.018Z,15.93
2019-02-05T15:20:41.162Z,16.43
2019-02-05T15:23:10.595Z,14.93
2019-02-05T15:25:39.654Z,13.30
2019-02-05T15:28:08.733Z,16.83
2019-02-05T15:30:39.951Z,11.63
2019-02-05T15:33:18.210Z,16.80
2019-02-05T15:35:48.797Z,16.63
2019-02-05T15:38:17.571Z,15.57
2019-02-05T15:40:46.927Z,19.20
2019-02-05T15:43:15.757Z,16.27
2019-02-05T15:45:44.547Z,17.07
2019-02-05T15:48:13.489Z,17.43
2019-02-05T15:50:42.321Z,26.30
2019-02-05T15:53:11.311Z,16.50
2019-02-05T15:55:41.005Z,18.37
2019-02-05T15:58:10.219Z,18.97
2019-02-05T16:00:39.021Z,16.90
2019-02-05T16:03:08.499Z,12.73
2019-02-05T16:05:37.909Z,18.17
2019-02-05T16:08:06.961Z,18.30
2019-02-05T16:10:35.716Z,15.60
2019-02-05T16:13:04.913Z,17.80
2019-02-05T16:15:33.589Z,15.07
2019-02-05T16:18:02.847Z,17.23
2019-02-05T16:20:31.622Z,18.00
2019-02-05T16:23:00.627Z,20.03
2019-02-05T16:25:29.532Z,16.13
2019-02-05T16:27:58.627Z,15.63
2019-02-05T16:30:33.929Z,15.07
2019-02-05T16:33:02.813Z,13.90
2019-02-05T16:35:32.220Z,18.53
2019-02-05T16:38:00.999Z,14.87
2019-02-05T16:40:32.453Z,14.53
2019-02-05T16:43:01.279Z,16.30
2019-02-05T16:45:31.309Z,16.47
2019-02-05T16:48:00.596Z,17.23
2019-02-05T16:50:35.435Z,18.30
2019-02-05T16:53:07.111Z,20.83
2019-02-05T16:55:35.964Z,17.60
2019-02-05T16:58:05.730Z,19.20
2019-02-05T17:00:38.159Z,19.40
2019-02-05T17:03:07.448Z,23.07
2019-02-05T17:05:41.414Z,22.50
2019-02-05T17:08:10.547Z,24.70
2019-02-05T17:10:39.288Z,24.30
2019-02-05T17:13:08.229Z,23.57
2019-02-05T17:15:37.108Z,28.20
2019-02-05T17:18:06.877Z,23.17
2019-02-05T17:20:36.060Z,22.23
2019-02-05T17:23:05.432Z,21.70
2019-02-05T17:25:36.031Z,26.60
2019-02-05T17:28:06.538Z,24.60
2019-02-05T17:30:39.833Z,25.07
2019-02-05T17:33:08.687Z,22.00
2019-02-05T17:35:37.704Z,22.50
2019-02-05T17:38:09.258Z,22.53
2019-02-05T17:40:38.075Z,20.83
2019-02-05T17:43:07.548Z,27.00
2019-02-05T17:45:38.894Z,24.00
2019-02-05T17:48:10.343Z,24.50
2019-02-05T17:50:39.462Z,28.33
2019-02-05T17:53:08.327Z,23.53
2019-02-05T17:55:37.099Z,29.40
2019-02-05T17:58:06.308Z,25.07
2019-02-05T18:00:37.025Z,31.03
2019-02-05T18:03:06.343Z,29.37
2019-02-05T18:05:35.494Z,20.37
2019-02-05T18:08:06.111Z,29.00
2019-02-05T18:10:34.856Z,32.30
2019-02-05T18:13:04.073Z,17.97
2019-02-05T18:15:38.264Z,19.17
2019-02-05T18:18:08.118Z,41.17
2019-02-05T18:20:37.378Z,25.17
2019-02-05T18:23:06.300Z,21.00
2019-02-05T18:25:34.952Z,19.03
2019-02-05T18:28:04.546Z,22.40
2019-02-05T18:30:35.756Z,22.10
2019-02-05T18:33:05.780Z,21.07
2019-02-05T18:35:34.774Z,22.17
2019-02-05T18:38:06.290Z,21.00
2019-02-05T18:40:35.021Z,17.57
2019-02-05T18:43:03.777Z,16.93
2019-02-05T18:45:32.609Z,21.80
2019-02-05T18:48:01.437Z,16.60
2019-02-05T18:50:30.591Z,20.67
2019-02-05T18:52:59.340Z,16.23
2019-02-05T18:55:36.254Z,18.50
2019-02-05T18:58:09.513Z,19.00
2019-02-05T19:00:42.370Z,20.80
2019-02-05T19:03:15.447Z,19.17
2019-02-05T19:05:42.156Z,16.13
2019-02-05T19:08:11.733Z,19.87
2019-02-05T19:10:40.997Z,19.43
2019-02-05T19:13:09.741Z,19.50
2019-02-05T19:15:40.302Z,18.57
2019-02-05T19:18:10.595Z,18.83
2019-02-05T19:20:39.560Z,17.40
2019-02-05T19:23:09.850Z,20.60
2019-02-05T19:25:40.496Z,19.83
2019-02-05T19:28:09.983Z,15.57
2019-02-05T19:30:40.363Z,23.20
2019-02-05T19:33:09.255Z,20.80
2019-02-05T19:35:37.994Z,20.10
2019-02-05T19:38:06.867Z,17.53
2019-02-05T19:40:35.670Z,22.80
2019-02-05T19:43:04.750Z,17.60
2019-02-05T19:45:51.719Z,19.63
2019-02-05T19:48:28.017Z,24.03
2019-02-05T19:50:57.075Z,22.03
2019-02-05T19:53:26.789Z,18.40
2019-02-05T19:55:55.769Z,20.40
2019-02-05T19:58:26.144Z,18.27
2019-02-05T20:00:55.400Z,21.20
2019-02-05T20:03:24.181Z,16.30
2019-02-05T20:05:53.204Z,20.73
2019-02-05T20:08:21.920Z,19.70
2019-02-05T20:10:50.699Z,17.20
2019-02-05T20:13:19.480Z,25.03
2019-02-05T20:15:51.053Z,24.00
2019-02-05T20:18:18.789Z,24.03
2019-02-05T20:20:47.435Z,25.37
2019-02-05T20:23:16.446Z,23.80
2019-02-05T20:25:45.159Z,29.67
2019-02-05T20:28:14.039Z,24.70
2019-02-05T20:30:43.010Z,35.07
2019-02-05T20:33:12.135Z,25.60
2019-02-05T20:35:40.912Z,26.20
2019-02-05T20:38:09.990Z,27.07
2019-02-05T20:40:38.647Z,30.27
2019-02-05T20:43:07.387Z,27.37
2019-02-05T20:45:36.118Z,24.70
2019-02-05T20:48:06.290Z,27.23
2019-02-05T20:50:35.247Z,30.50
2019-02-05T20:53:13.420Z,28.27
2019-02-05T20:55:35.021Z,29.13
2019-02-05T20:58:04.174Z,25.10
2019-02-05T21:00:33.780Z,31.90
2019-02-05T21:03:02.636Z,25.33
2019-02-05T21:05:31.555Z,27.33
2019-02-05T21:08:01.178Z,24.27
2019-02-05T21:10:31.056Z,28.67
2019-02-05T21:13:01.059Z,33.40
2019-02-05T21:15:30.095Z,26.80
2019-02-05T21:17:59.397Z,31.67
2019-02-05T21:20:34.115Z,31.93
2019-02-05T21:23:03.123Z,37.63
2019-02-05T21:25:33.972Z,33.47
2019-02-05T21:28:02.743Z,27.40
2019-02-05T21:30:31.717Z,28.37
2019-02-05T21:33:00.475Z,40.00
2019-02-05T21:35:29.374Z,31.40
2019-02-05T21:37:58.569Z,27.90
2019-02-05T21:40:31.338Z,31.10
2019-02-05T21:42:58.813Z,37.73
2019-02-05T21:45:31.802Z,32.73
2019-02-05T21:48:00.767Z,27.10
2019-02-05T21:50:29.816Z,30.90
2019-02-05T21:52:59.180Z,29.47
2019-02-05T21:55:28.654Z,31.20
2019-02-05T21:57:57.704Z,28.27
2019-02-05T22:00:36.416Z,26.23
2019-02-05T22:03:06.767Z,31.43
2019-02-05T22:05:35.864Z,25.63
2019-02-05T22:08:08.566Z,23.40
2019-02-05T22:10:36.190Z,23.73
2019-02-05T22:13:07.301Z,24.33
2019-02-05T22:15:36.427Z,21.83
2019-02-05T22:18:05.192Z,20.40
2019-02-05T22:20:35.227Z,19.47
2019-02-05T22:23:04.120Z,21.10
2019-02-05T22:25:33.737Z,21.40
2019-02-05T22:28:02.616Z,27.63
2019-02-05T22:30:34.679Z,24.50
2019-02-05T22:33:05.494Z,23.50
2019-02-05T22:35:34.873Z,20.90
2019-02-05T22:38:04.520Z,18.70
2019-02-05T22:40:33.418Z,20.20
2019-02-05T22:43:03.223Z,22.53
2019-02-05T22:45:32.491Z,21.83
2019-02-05T22:48:01.410Z,19.50
2019-02-05T22:50:38.286Z,19.17
2019-02-05T22:53:12.319Z,21.67
2019-02-05T22:55:41.419Z,19.37
2019-02-05T22:58:10.568Z,17.23
2019-02-05T23:00:53.160Z,19.50
2019-02-05T23:03:28.128Z,18.37
2019-02-05T23:06:33.745Z,23.87
2019-02-05T23:09:11.784Z,21.20
2019-02-05T23:11:52.962Z,30.33
2019-02-05T23:14:22.331Z,19.50
2019-02-05T23:16:51.521Z,19.80
2019-02-05T23:19:20.962Z,23.10
2019-02-05T23:21:49.952Z,20.70
2019-02-05T23:24:18.739Z,18.40
2019-02-05T23:26:49.342Z,20.17
2019-02-05T23:29:18.585Z,19.13
2019-02-05T23:31:47.662Z,20.90
2019-02-05T23:34:17.162Z,21.93
2019-02-05T23:36:46.154Z,18.70
2019-02-05T23:39:14.939Z,18.17
2019-02-05T23:41:43.735Z,18.87
2019-02-05T23:44:12.687Z,19.20
2019-02-05T23:46:42.016Z,20.20
2019-02-05T23:49:10.885Z,17.57
2019-02-05T23:51:39.665Z,20.40
2019-02-05T23:54:08.792Z,17.87
2019-02-05T23:56:37.785Z,20.83
2019-02-05T23:59:06.553Z,15.30
